sensor_id;sensor_type;location;lat;lon;timestamp;pressure;altitude;pressure_sealevel;temperature;humidity
72959;BME280;60008;50.826;6.896;2023-06-01T00:02:42;101418.56;;;16.35;100.00
72959;BME280;60008;50.826;6.896;2023-06-01T00:05:34;101415.25;;;16.33;100.00
72959;BME280;60008;50.826;6.896;2023-06-01T00:08:19;101413.84;;;16.22;100.00
72959;BME280;60008;50.826;6.896;2023-06-01T00:11:13;101424.00;;;16.04;100.00
72959;BME280;60008;50.826;6.896;2023-06-01T00:13:58;101411.47;;;16.04;100.00
72959;BME280;60008;50.826;6.896;2023-06-01T00:16:50;101418.38;;;15.99;100.00
72959;BME280;60008;50.826;6.896;2023-06-01T00:19:43;101421.19;;;16.05;100.00
72959;BME280;60008;50.826;6.896;2023-06-01T00:22:29;101421.81;;;16.07;100.00
72959;BME280;60008;50.826;6.896;2023-06-01T00:25:25;101425.63;;;16.13;100.00
72959;BME280;60008;50.826;6.896;2023-06-01T00:28:10;101414.81;;;16.06;100.00
72959;BME280;60008;50.826;6.896;2023-06-01T00:31:02;101424.75;;;15.98;100.00
72959;BME280;60008;50.826;6.896;2023-06-01T00:33:47;101417.38;;;16.00;100.00
72959;BME280;60008;50.826;6.896;2023-06-01T00:36:38;101426.69;;;16.04;100.00
72959;BME280;60008;50.826;6.896;2023-06-01T00:39:23;101423.91;;;15.97;100.00
72959;BME280;60008;50.826;6.896;2023-06-01T00:42:14;101428.97;;;15.92;100.00
72959;BME280;60008;50.826;6.896;2023-06-01T00:45:06;101426.31;;;15.92;100.00
72959;BME280;60008;50.826;6.896;2023-06-01T00:47:58;101424.44;;;15.93;100.00
72959;BME280;60008;50.826;6.896;2023-06-01T00:50:44;101424.69;;;15.83;100.00
72959;BME280;60008;50.826;6.896;2023-06-01T00:53:36;101422.66;;;15.85;100.00
72959;BME280;60008;50.826;6.896;2023-06-01T00:56:28;101420.28;;;15.68;100.00
72959;BME280;60008;50.826;6.896;2023-06-01T00:59:13;101410.72;;;15.73;100.00
72959;BME280;60008;50.826;6.896;2023-06-01T01:02:05;101418.44;;;15.68;100.00
72959;BME280;60008;50.826;6.896;2023-06-01T01:04:57;101418.31;;;15.62;100.00
72959;BME280;60008;50.826;6.896;2023-06-01T01:10:52;101421.69;;;15.56;100.00
72959;BME280;60008;50.826;6.896;2023-06-01T01:13:46;101428.41;;;15.52;100.00
72959;BME280;60008;50.826;6.896;2023-06-01T01:16:44;101425.41;;;15.46;100.00
72959;BME280;60008;50.826;6.896;2023-06-01T01:19:54;101422.88;;;15.45;100.00
72959;BME280;60008;50.826;6.896;2023-06-01T01:26:42;101430.41;;;15.41;100.00
72959;BME280;60008;50.826;6.896;2023-06-01T01:29:31;101423.94;;;15.36;100.00
72959;BME280;60008;50.826;6.896;2023-06-01T01:32:25;101427.78;;;15.33;100.00
72959;BME280;60008;50.826;6.896;2023-06-01T01:35:11;101429.47;;;15.34;100.00
72959;BME280;60008;50.826;6.896;2023-06-01T01:38:03;101426.63;;;15.28;100.00
72959;BME280;60008;50.826;6.896;2023-06-01T01:41:01;101429.66;;;15.25;100.00
72959;BME280;60008;50.826;6.896;2023-06-01T01:43:52;101426.22;;;15.16;100.00
72959;BME280;60008;50.826;6.896;2023-06-01T01:47:01;101427.84;;;15.17;100.00
72959;BME280;60008;50.826;6.896;2023-06-01T01:50:05;101429.53;;;15.18;100.00
72959;BME280;60008;50.826;6.896;2023-06-01T01:52:57;101426.03;;;15.18;100.00
72959;BME280;60008;50.826;6.896;2023-06-01T01:55:52;101422.22;;;15.12;100.00
72959;BME280;60008;50.826;6.896;2023-06-01T01:58:39;101426.25;;;15.08;100.00
72959;BME280;60008;50.826;6.896;2023-06-01T02:01:32;101427.41;;;15.06;100.00
72959;BME280;60008;50.826;6.896;2023-06-01T02:04:20;101418.91;;;15.02;100.00
72959;BME280;60008;50.826;6.896;2023-06-01T02:07:11;101419.06;;;15.01;100.00
72959;BME280;60008;50.826;6.896;2023-06-01T02:09:56;101427.78;;;14.95;100.00
72959;BME280;60008;50.826;6.896;2023-06-01T02:12:48;101430.66;;;14.85;100.00
72959;BME280;60008;50.826;6.896;2023-06-01T02:15:33;101423.81;;;14.82;100.00
72959;BME280;60008;50.826;6.896;2023-06-01T02:18:24;101426.66;;;14.81;100.00
72959;BME280;60008;50.826;6.896;2023-06-01T02:21:10;101420.31;;;14.82;100.00
72959;BME280;60008;50.826;6.896;2023-06-01T02:24:02;101426.16;;;14.77;100.00
72959;BME280;60008;50.826;6.896;2023-06-01T02:26:50;101426.50;;;14.74;100.00
72959;BME280;60008;50.826;6.896;2023-06-01T02:29:45;101424.50;;;14.76;100.00
72959;BME280;60008;50.826;6.896;2023-06-01T02:32:30;101424.50;;;14.76;100.00
72959;BME280;60008;50.826;6.896;2023-06-01T02:35:22;101425.50;;;14.83;100.00
72959;BME280;60008;50.826;6.896;2023-06-01T02:38:07;101420.16;;;14.83;100.00
72959;BME280;60008;50.826;6.896;2023-06-01T02:41:05;101426.00;;;14.79;100.00
72959;BME280;60008;50.826;6.896;2023-06-01T02:43:51;101420.34;;;14.74;100.00
72959;BME280;60008;50.826;6.896;2023-06-01T02:46:43;101419.03;;;14.70;100.00
72959;BME280;60008;50.826;6.896;2023-06-01T02:49:28;101409.69;;;14.66;100.00
72959;BME280;60008;50.826;6.896;2023-06-01T02:52:20;101423.88;;;14.66;100.00
72959;BME280;60008;50.826;6.896;2023-06-01T02:55:12;101428.88;;;14.61;100.00
72959;BME280;60008;50.826;6.896;2023-06-01T02:58:03;101429.03;;;14.60;100.00
72959;BME280;60008;50.826;6.896;2023-06-01T03:00:48;101421.53;;;14.55;100.00
72959;BME280;60008;50.826;6.896;2023-06-01T03:03:39;101419.88;;;14.54;100.00
72959;BME280;60008;50.826;6.896;2023-06-01T03:06:31;101418.91;;;14.47;100.00
72959;BME280;60008;50.826;6.896;2023-06-01T03:09:16;101418.06;;;14.47;100.00
72959;BME280;60008;50.826;6.896;2023-06-01T03:12:08;101426.91;;;14.47;100.00
72959;BME280;60008;50.826;6.896;2023-06-01T03:14:53;101421.25;;;14.42;100.00
72959;BME280;60008;50.826;6.896;2023-06-01T03:17:45;101422.25;;;14.33;100.00
72959;BME280;60008;50.826;6.896;2023-06-01T03:20:31;101426.72;;;14.32;100.00
72959;BME280;60008;50.826;6.896;2023-06-01T03:23:23;101421.56;;;14.31;100.00
72959;BME280;60008;50.826;6.896;2023-06-01T03:26:14;101421.75;;;14.38;100.00
72959;BME280;60008;50.826;6.896;2023-06-01T03:29:09;101430.91;;;14.35;100.00
72959;BME280;60008;50.826;6.896;2023-06-01T03:32:01;101430.91;;;14.35;100.00
72959;BME280;60008;50.826;6.896;2023-06-01T03:34:46;101429.22;;;14.26;100.00
72959;BME280;60008;50.826;6.896;2023-06-01T03:37:40;101433.09;;;14.32;100.00
72959;BME280;60008;50.826;6.896;2023-06-01T03:40:32;101430.56;;;14.38;100.00
72959;BME280;60008;50.826;6.896;2023-06-01T03:43:36;101433.19;;;14.30;100.00
72959;BME280;60008;50.826;6.896;2023-06-01T03:46:28;101439.72;;;14.36;100.00
72959;BME280;60008;50.826;6.896;2023-06-01T03:49:19;101440.91;;;14.33;100.00
72959;BME280;60008;50.826;6.896;2023-06-01T03:52:11;101442.41;;;14.36;100.00
72959;BME280;60008;50.826;6.896;2023-06-01T03:54:58;101447.06;;;14.25;100.00
72959;BME280;60008;50.826;6.896;2023-06-01T03:57:49;101445.56;;;14.23;100.00
72959;BME280;60008;50.826;6.896;2023-06-01T04:00:34;101450.88;;;14.31;100.00
72959;BME280;60008;50.826;6.896;2023-06-01T04:03:27;101444.22;;;14.35;100.00
72959;BME280;60008;50.826;6.896;2023-06-01T04:06:19;101458.72;;;14.32;100.00
72959;BME280;60008;50.826;6.896;2023-06-01T04:09:11;101444.22;;;14.35;100.00
72959;BME280;60008;50.826;6.896;2023-06-01T04:12:03;101451.56;;;14.33;100.00
72959;BME280;60008;50.826;6.896;2023-06-01T04:14:55;101456.03;;;14.24;100.00
72959;BME280;60008;50.826;6.896;2023-06-01T04:17:42;101454.72;;;14.28;100.00
72959;BME280;60008;50.826;6.896;2023-06-01T04:20:33;101461.03;;;14.27;100.00
72959;BME280;60008;50.826;6.896;2023-06-01T04:23:26;101458.22;;;14.29;100.00
72959;BME280;60008;50.826;6.896;2023-06-01T04:26:17;101463.91;;;14.34;100.00
72959;BME280;60008;50.826;6.896;2023-06-01T04:29:03;101474.56;;;14.26;100.00
72959;BME280;60008;50.826;6.896;2023-06-01T04:31:55;101472.06;;;14.32;100.00
72959;BME280;60008;50.826;6.896;2023-06-01T04:34:41;101475.56;;;14.33;100.00
72959;BME280;60008;50.826;6.896;2023-06-01T04:37:35;101472.56;;;14.52;100.00
72959;BME280;60008;50.826;6.896;2023-06-01T04:40:27;101465.06;;;14.48;100.00
72959;BME280;60008;50.826;6.896;2023-06-01T04:43:32;101473.22;;;14.38;100.00
72959;BME280;60008;50.826;6.896;2023-06-01T04:46:19;101478.19;;;14.17;100.00
72959;BME280;60008;50.826;6.896;2023-06-01T04:49:11;101483.53;;;14.09;100.00
72959;BME280;60008;50.826;6.896;2023-06-01T04:52:00;101481.72;;;14.17;100.00
72959;BME280;60008;50.826;6.896;2023-06-01T04:54:52;101484.06;;;14.28;100.00
72959;BME280;60008;50.826;6.896;2023-06-01T04:57:37;101477.41;;;14.32;100.00
72959;BME280;60008;50.826;6.896;2023-06-01T05:00:30;101480.88;;;14.25;100.00
72959;BME280;60008;50.826;6.896;2023-06-01T05:03:15;101489.25;;;14.38;100.00
72959;BME280;60008;50.826;6.896;2023-06-01T05:06:08;101491.22;;;14.28;100.00
72959;BME280;60008;50.826;6.896;2023-06-01T05:08:53;101478.75;;;14.45;100.00
72959;BME280;60008;50.826;6.896;2023-06-01T05:11:45;101482.69;;;14.24;100.00
72959;BME280;60008;50.826;6.896;2023-06-01T05:14:30;101478.25;;;14.41;100.00
72959;BME280;60008;50.826;6.896;2023-06-01T05:17:21;101476.06;;;14.53;100.00
72959;BME280;60008;50.826;6.896;2023-06-01T05:20:13;101485.56;;;14.31;100.00
72959;BME280;60008;50.826;6.896;2023-06-01T05:23:05;101494.56;;;14.38;100.00
72959;BME280;60008;50.826;6.896;2023-06-01T05:25:51;101498.59;;;14.42;100.00
72959;BME280;60008;50.826;6.896;2023-06-01T05:28:42;101494.25;;;14.41;100.00
72959;BME280;60008;50.826;6.896;2023-06-01T05:31:27;101504.91;;;14.41;100.00
72959;BME280;60008;50.826;6.896;2023-06-01T05:34:19;101496.06;;;14.32;100.00
72959;BME280;60008;50.826;6.896;2023-06-01T05:37:05;101500.72;;;14.30;100.00
72959;BME280;60008;50.826;6.896;2023-06-01T05:39:57;101495.06;;;14.50;100.00
72959;BME280;60008;50.826;6.896;2023-06-01T05:42:48;101483.56;;;14.65;100.00
72959;BME280;60008;50.826;6.896;2023-06-01T05:45:47;101487.69;;;14.76;100.00
72959;BME280;60008;50.826;6.896;2023-06-01T05:48:39;101487.25;;;14.48;100.00
72959;BME280;60008;50.826;6.896;2023-06-01T05:51:25;101501.06;;;14.44;100.00
72959;BME280;60008;50.826;6.896;2023-06-01T05:54:16;101504.06;;;14.41;100.00
72959;BME280;60008;50.826;6.896;2023-06-01T05:57:01;101497.22;;;14.54;100.00
72959;BME280;60008;50.826;6.896;2023-06-01T05:59:53;101490.72;;;14.57;100.00
72959;BME280;60008;50.826;6.896;2023-06-01T06:02:38;101498.91;;;14.55;100.00
72959;BME280;60008;50.826;6.896;2023-06-01T06:05:29;101485.22;;;14.74;100.00
72959;BME280;60008;50.826;6.896;2023-06-01T06:08:15;101492.38;;;14.82;100.00
72959;BME280;60008;50.826;6.896;2023-06-01T06:11:06;101494.03;;;14.83;100.00
72959;BME280;60008;50.826;6.896;2023-06-01T06:13:51;101499.66;;;15.04;100.00
72959;BME280;60008;50.826;6.896;2023-06-01T06:16:42;101502.22;;;14.65;100.00
72959;BME280;60008;50.826;6.896;2023-06-01T06:19:27;101499.88;;;14.70;100.00
72959;BME280;60008;50.826;6.896;2023-06-01T06:22:19;101498.81;;;15.04;100.00
72959;BME280;60008;50.826;6.896;2023-06-01T06:25:05;101498.13;;;15.18;100.00
72959;BME280;60008;50.826;6.896;2023-06-01T06:27:56;101499.25;;;15.31;100.00
72959;BME280;60008;50.826;6.896;2023-06-01T06:30:41;101503.66;;;15.00;100.00
72959;BME280;60008;50.826;6.896;2023-06-01T06:33:33;101505.50;;;15.08;100.00
72959;BME280;60008;50.826;6.896;2023-06-01T06:36:19;101498.13;;;15.18;100.00
72959;BME280;60008;50.826;6.896;2023-06-01T06:39:12;101495.66;;;15.08;100.00
72959;BME280;60008;50.826;6.896;2023-06-01T06:42:10;101496.38;;;15.33;100.00
72959;BME280;60008;50.826;6.896;2023-06-01T06:45:02;101498.25;;;15.32;100.00
72959;BME280;60008;50.826;6.896;2023-06-01T06:47:49;101489.97;;;15.58;100.00
72959;BME280;60008;50.826;6.896;2023-06-01T06:50:41;101505.91;;;15.43;100.00
72959;BME280;60008;50.826;6.896;2023-06-01T06:53:35;101502.19;;;15.53;100.00
72959;BME280;60008;50.826;6.896;2023-06-01T06:56:20;101505.81;;;15.68;100.00
72959;BME280;60008;50.826;6.896;2023-06-01T06:59:12;101506.50;;;15.92;100.00
72959;BME280;60008;50.826;6.896;2023-06-01T07:02:04;101508.34;;;15.92;100.00
72959;BME280;60008;50.826;6.896;2023-06-01T07:04:56;101504.41;;;15.80;100.00
72959;BME280;60008;50.826;6.896;2023-06-01T07:07:48;101518.81;;;15.71;100.00
72959;BME280;60008;50.826;6.896;2023-06-01T07:10:33;101518.09;;;15.46;100.00
72959;BME280;60008;50.826;6.896;2023-06-01T07:13:25;101511.03;;;15.53;100.00
72959;BME280;60008;50.826;6.896;2023-06-01T07:16:11;101509.38;;;15.44;100.00
72959;BME280;60008;50.826;6.896;2023-06-01T07:19:02;101506.31;;;15.94;100.00
72959;BME280;60008;50.826;6.896;2023-06-01T07:21:47;101508.53;;;16.13;100.00
72959;BME280;60008;50.826;6.896;2023-06-01T07:24:39;101508.19;;;16.16;100.00
72959;BME280;60008;50.826;6.896;2023-06-01T07:27:24;101506.34;;;16.17;100.00
72959;BME280;60008;50.826;6.896;2023-06-01T07:30:17;101515.22;;;16.09;100.00
72959;BME280;60008;50.826;6.896;2023-06-01T07:33:02;101508.50;;;16.81;100.00
72959;BME280;60008;50.826;6.896;2023-06-01T07:35:54;101500.75;;;16.86;100.00
72959;BME280;60008;50.826;6.896;2023-06-01T07:38:41;101501.72;;;19.00;100.00
72959;BME280;60008;50.826;6.896;2023-06-01T07:41:33;101496.00;;;19.44;100.00
72959;BME280;60008;50.826;6.896;2023-06-01T07:44:24;101484.91;;;20.60;100.00
72959;BME280;60008;50.826;6.896;2023-06-01T07:47:17;101488.50;;;21.38;100.00
72959;BME280;60008;50.826;6.896;2023-06-01T07:50:02;101493.34;;;21.09;100.00
72959;BME280;60008;50.826;6.896;2023-06-01T07:52:54;101489.84;;;23.09;95.32
72959;BME280;60008;50.826;6.896;2023-06-01T07:55:40;101487.16;;;23.46;92.61
72959;BME280;60008;50.826;6.896;2023-06-01T07:58:31;101496.28;;;21.65;100.00
72959;BME280;60008;50.826;6.896;2023-06-01T08:01:17;101488.84;;;19.23;100.00
72959;BME280;60008;50.826;6.896;2023-06-01T08:04:09;101494.78;;;21.25;100.00
72959;BME280;60008;50.826;6.896;2023-06-01T08:06:55;101490.88;;;20.95;100.00
72959;BME280;60008;50.826;6.896;2023-06-01T08:09:47;101498.78;;;20.63;100.00
72959;BME280;60008;50.826;6.896;2023-06-01T08:12:32;101502.91;;;21.69;100.00
72959;BME280;60008;50.826;6.896;2023-06-01T08:15:24;101499.72;;;22.48;96.31
72959;BME280;60008;50.826;6.896;2023-06-01T08:18:10;101491.50;;;23.29;91.91
72959;BME280;60008;50.826;6.896;2023-06-01T08:21:02;101484.19;;;24.25;85.15
72959;BME280;60008;50.826;6.896;2023-06-01T08:23:48;101482.19;;;23.61;87.45
72959;BME280;60008;50.826;6.896;2023-06-01T08:26:42;101486.03;;;22.74;92.44
72959;BME280;60008;50.826;6.896;2023-06-01T08:29:34;101492.25;;;22.75;89.18
72959;BME280;60008;50.826;6.896;2023-06-01T08:32:26;101487.13;;;21.66;94.95
72959;BME280;60008;50.826;6.896;2023-06-01T08:35:11;101484.69;;;23.44;87.68
72959;BME280;60008;50.826;6.896;2023-06-01T08:38:03;101495.38;;;22.47;90.32
72959;BME280;60008;50.826;6.896;2023-06-01T08:40:48;101483.09;;;23.37;87.16
72959;BME280;60008;50.826;6.896;2023-06-01T08:43:53;101481.59;;;23.04;89.88
72959;BME280;60008;50.826;6.896;2023-06-01T08:46:40;101485.78;;;23.55;85.84
72959;BME280;60008;50.826;6.896;2023-06-01T08:49:35;101488.50;;;23.55;85.20
72959;BME280;60008;50.826;6.896;2023-06-01T08:52:21;101483.81;;;23.80;83.10
72959;BME280;60008;50.826;6.896;2023-06-01T08:55:16;101483.16;;;23.30;85.54
72959;BME280;60008;50.826;6.896;2023-06-01T08:58:07;101478.72;;;23.72;81.51
72959;BME280;60008;50.826;6.896;2023-06-01T09:00:53;101485.41;;;21.34;94.32
72959;BME280;60008;50.826;6.896;2023-06-01T09:03:45;101477.28;;;21.41;92.49
72959;BME280;60008;50.826;6.896;2023-06-01T09:06:30;101482.59;;;22.36;84.75
72959;BME280;60008;50.826;6.896;2023-06-01T09:09:22;101470.81;;;22.98;83.90
72959;BME280;60008;50.826;6.896;2023-06-01T09:12:27;101476.47;;;23.33;79.89
72959;BME280;60008;50.826;6.896;2023-06-01T09:15:21;101485.97;;;21.93;85.25
72959;BME280;60008;50.826;6.896;2023-06-01T09:18:08;101483.16;;;22.44;83.66
72959;BME280;60008;50.826;6.896;2023-06-01T09:21:12;101475.44;;;23.82;78.03
72959;BME280;60008;50.826;6.896;2023-06-01T09:24:17;101473.63;;;23.76;72.73
72959;BME280;60008;50.826;6.896;2023-06-01T09:27:09;101473.19;;;24.61;71.68
72959;BME280;60008;50.826;6.896;2023-06-01T09:29:56;101479.75;;;22.24;81.43
72959;BME280;60008;50.826;6.896;2023-06-01T09:32:47;101470.22;;;24.40;73.34
72959;BME280;60008;50.826;6.896;2023-06-01T09:35:42;101483.06;;;22.82;79.75
72959;BME280;60008;50.826;6.896;2023-06-01T09:38:34;101467.53;;;23.50;74.04
72959;BME280;60008;50.826;6.896;2023-06-01T09:41:19;101462.47;;;22.81;76.56
72959;BME280;60008;50.826;6.896;2023-06-01T09:44:13;101452.88;;;24.41;70.62
72959;BME280;60008;50.826;6.896;2023-06-01T09:47:10;101452.31;;;25.60;64.95
72959;BME280;60008;50.826;6.896;2023-06-01T09:49:57;101447.72;;;26.05;56.52
72959;BME280;60008;50.826;6.896;2023-06-01T09:52:57;101446.84;;;25.20;61.06
72959;BME280;60008;50.826;6.896;2023-06-01T09:55:59;101438.88;;;25.81;60.34
72959;BME280;60008;50.826;6.896;2023-06-01T09:58:58;101436.13;;;25.65;60.15
72959;BME280;60008;50.826;6.896;2023-06-01T10:01:49;101437.09;;;25.19;59.93
72959;BME280;60008;50.826;6.896;2023-06-01T10:04:45;101431.88;;;25.17;58.56
72959;BME280;60008;50.826;6.896;2023-06-01T10:07:38;101426.25;;;24.84;60.96
72959;BME280;60008;50.826;6.896;2023-06-01T10:10:31;101419.28;;;26.41;55.10
72959;BME280;60008;50.826;6.896;2023-06-01T10:13:17;101420.97;;;24.43;57.12
72959;BME280;60008;50.826;6.896;2023-06-01T10:16:09;101420.00;;;24.60;58.10
72959;BME280;60008;50.826;6.896;2023-06-01T10:18:58;101420.38;;;24.75;60.92
72959;BME280;60008;50.826;6.896;2023-06-01T10:21:49;101421.03;;;23.24;63.30
72959;BME280;60008;50.826;6.896;2023-06-01T10:24:35;101419.63;;;25.03;60.04
72959;BME280;60008;50.826;6.896;2023-06-01T10:28:15;101421.97;;;23.29;63.20
72959;BME280;60008;50.826;6.896;2023-06-01T10:31:38;101420.00;;;25.07;58.82
72959;BME280;60008;50.826;6.896;2023-06-01T10:34:44;101419.63;;;25.03;59.49
72959;BME280;60008;50.826;6.896;2023-06-01T10:37:29;101415.41;;;24.61;60.56
72959;BME280;60008;50.826;6.896;2023-06-01T10:40:21;101422.16;;;25.33;60.88
72959;BME280;60008;50.826;6.896;2023-06-01T10:43:08;101411.66;;;26.10;54.58
72959;BME280;60008;50.826;6.896;2023-06-01T10:46:39;101409.69;;;26.55;53.08
72959;BME280;60008;50.826;6.896;2023-06-01T10:52:34;101406.59;;;24.42;63.27
72959;BME280;60008;50.826;6.896;2023-06-01T10:55:26;101402.28;;;25.56;56.90
72959;BME280;60008;50.826;6.896;2023-06-01T10:58:21;101397.81;;;24.98;60.12
72959;BME280;60008;50.826;6.896;2023-06-01T11:01:19;101395.09;;;25.10;62.42
72959;BME280;60008;50.826;6.896;2023-06-01T11:04:05;101384.53;;;24.39;59.12
72959;BME280;60008;50.826;6.896;2023-06-01T11:07:35;101388.78;;;24.69;54.63
72959;BME280;60008;50.826;6.896;2023-06-01T11:14:05;101386.16;;;25.49;56.69
72959;BME280;60008;50.826;6.896;2023-06-01T11:17:27;101386.19;;;25.82;52.46
72959;BME280;60008;50.826;6.896;2023-06-01T11:20:14;101383.38;;;25.77;51.08
72959;BME280;60008;50.826;6.896;2023-06-01T11:23:10;101379.00;;;24.92;54.78
72959;BME280;60008;50.826;6.896;2023-06-01T11:25:55;101381.88;;;25.98;50.64
72959;BME280;60008;50.826;6.896;2023-06-01T11:28:48;101392.50;;;26.33;50.82
72959;BME280;60008;50.826;6.896;2023-06-01T11:31:57;101387.38;;;24.44;57.00
72959;BME280;60008;50.826;6.896;2023-06-01T11:34:50;101382.78;;;24.56;58.81
72959;BME280;60008;50.826;6.896;2023-06-01T11:37:42;101383.97;;;23.42;56.87
72959;BME280;60008;50.826;6.896;2023-06-01T11:40:28;101379.13;;;23.74;61.43
72959;BME280;60008;50.826;6.896;2023-06-01T11:43:31;101382.75;;;23.38;64.24
72959;BME280;60008;50.826;6.896;2023-06-01T11:46:23;101370.66;;;23.23;62.02
72959;BME280;60008;50.826;6.896;2023-06-01T11:49:15;101365.75;;;22.65;63.32
72959;BME280;60008;50.826;6.896;2023-06-01T11:52:00;101366.84;;;22.58;68.23
72959;BME280;60008;50.826;6.896;2023-06-01T11:54:52;101368.03;;;23.16;66.99
72959;BME280;60008;50.826;6.896;2023-06-01T11:57:44;101359.53;;;22.83;66.12
72959;BME280;60008;50.826;6.896;2023-06-01T12:00:29;101362.50;;;22.32;69.92
72959;BME280;60008;50.826;6.896;2023-06-01T12:03:22;101362.09;;;22.53;67.84
72959;BME280;60008;50.826;6.896;2023-06-01T12:06:19;101355.78;;;23.13;65.45
72959;BME280;60008;50.826;6.896;2023-06-01T12:09:11;101354.91;;;22.83;63.52
72959;BME280;60008;50.826;6.896;2023-06-01T12:11:57;101359.66;;;22.02;66.16
72959;BME280;60008;50.826;6.896;2023-06-01T12:14:50;101360.91;;;22.24;69.49
72959;BME280;60008;50.826;6.896;2023-06-01T12:18:05;101351.88;;;22.80;64.69
72959;BME280;60008;50.826;6.896;2023-06-01T12:20:58;101361.75;;;22.25;64.71
72959;BME280;60008;50.826;6.896;2023-06-01T12:23:48;101351.44;;;22.58;65.27
72959;BME280;60008;50.826;6.896;2023-06-01T12:26:42;101348.50;;;22.60;63.00
72959;BME280;60008;50.826;6.896;2023-06-01T12:29:44;101347.22;;;22.44;64.77
72959;BME280;60008;50.826;6.896;2023-06-01T12:32:39;101351.94;;;22.06;60.91
72959;BME280;60008;50.826;6.896;2023-06-01T12:35:24;101339.13;;;22.44;61.29
72959;BME280;60008;50.826;6.896;2023-06-01T12:38:15;101340.16;;;22.43;62.17
72959;BME280;60008;50.826;6.896;2023-06-01T12:41:07;101335.56;;;22.68;63.63
72959;BME280;60008;50.826;6.896;2023-06-01T12:43:59;101338.63;;;22.29;60.92
72959;BME280;60008;50.826;6.896;2023-06-01T12:46:56;101348.72;;;21.66;60.47
72959;BME280;60008;50.826;6.896;2023-06-01T12:50:02;101333.25;;;22.29;59.25
72959;BME280;60008;50.826;6.896;2023-06-01T12:52:47;101336.88;;;22.41;58.30
72959;BME280;60008;50.826;6.896;2023-06-01T12:55:38;101332.84;;;22.50;58.54
72959;BME280;60008;50.826;6.896;2023-06-01T12:58:29;101324.50;;;22.70;56.18
72959;BME280;60008;50.826;6.896;2023-06-01T13:01:20;101328.50;;;22.67;56.24
72959;BME280;60008;50.826;6.896;2023-06-01T13:04:11;101321.63;;;22.46;60.66
72959;BME280;60008;50.826;6.896;2023-06-01T13:07:04;101318.34;;;22.63;61.85
72959;BME280;60008;50.826;6.896;2023-06-01T13:09:49;101319.81;;;22.59;62.94
72959;BME280;60008;50.826;6.896;2023-06-01T13:12:40;101308.44;;;22.57;56.63
72959;BME280;60008;50.826;6.896;2023-06-01T13:15:25;101313.19;;;22.61;61.34
72959;BME280;60008;50.826;6.896;2023-06-01T13:18:16;101307.16;;;22.41;61.20
72959;BME280;60008;50.826;6.896;2023-06-01T13:21:02;101306.53;;;22.21;56.71
72959;BME280;60008;50.826;6.896;2023-06-01T13:23:53;101308.47;;;22.14;61.59
72959;BME280;60008;50.826;6.896;2023-06-01T13:26:38;101303.31;;;22.30;60.86
72959;BME280;60008;50.826;6.896;2023-06-01T13:29:30;101305.47;;;22.22;60.84
72959;BME280;60008;50.826;6.896;2023-06-01T13:32:22;101301.00;;;22.34;63.18
72959;BME280;60008;50.826;6.896;2023-06-01T13:35:08;101308.47;;;22.32;63.65
72959;BME280;60008;50.826;6.896;2023-06-01T13:37:59;101300.63;;;22.48;61.21
72959;BME280;60008;50.826;6.896;2023-06-01T13:40:44;101297.03;;;22.54;62.18
72959;BME280;60008;50.826;6.896;2023-06-01T13:43:42;101304.31;;;22.54;60.33
72959;BME280;60008;50.826;6.896;2023-06-01T13:46:27;101295.22;;;22.48;58.59
72959;BME280;60008;50.826;6.896;2023-06-01T13:49:19;101300.22;;;22.45;60.46
72959;BME280;60008;50.826;6.896;2023-06-01T13:52:04;101299.44;;;22.44;61.64
72959;BME280;60008;50.826;6.896;2023-06-01T13:54:55;101290.84;;;22.29;66.13
72959;BME280;60008;50.826;6.896;2023-06-01T13:57:40;101278.72;;;22.20;62.26
72959;BME280;60008;50.826;6.896;2023-06-01T14:00:32;101281.19;;;21.72;62.11
72959;BME280;60008;50.826;6.896;2023-06-01T14:03:17;101276.81;;;22.21;66.53
72959;BME280;60008;50.826;6.896;2023-06-01T14:06:09;101272.91;;;22.17;62.88
72959;BME280;60008;50.826;6.896;2023-06-01T14:09:03;101275.09;;;22.63;62.45
72959;BME280;60008;50.826;6.896;2023-06-01T14:11:54;101276.69;;;22.70;63.19
72959;BME280;60008;50.826;6.896;2023-06-01T14:14:39;101271.81;;;22.79;64.24
72959;BME280;60008;50.826;6.896;2023-06-01T14:17:31;101261.22;;;22.59;62.17
72959;BME280;60008;50.826;6.896;2023-06-01T14:20:16;101268.78;;;22.50;61.88
72959;BME280;60008;50.826;6.896;2023-06-01T14:23:08;101261.91;;;22.54;62.94
72959;BME280;60008;50.826;6.896;2023-06-01T14:25:54;101260.94;;;22.67;65.48
72959;BME280;60008;50.826;6.896;2023-06-01T14:28:47;101260.47;;;22.70;64.46
72959;BME280;60008;50.826;6.896;2023-06-01T14:31:32;101253.19;;;22.34;62.49
72959;BME280;60008;50.826;6.896;2023-06-01T14:34:23;101240.75;;;22.33;62.77
72959;BME280;60008;50.826;6.896;2023-06-01T14:37:09;101252.00;;;22.67;62.05
72959;BME280;60008;50.826;6.896;2023-06-01T14:40:02;101251.41;;;22.46;62.18
72959;BME280;60008;50.826;6.896;2023-06-01T14:42:47;101238.28;;;22.50;60.47
72959;BME280;60008;50.826;6.896;2023-06-01T14:45:45;101245.69;;;22.18;64.44
72959;BME280;60008;50.826;6.896;2023-06-01T14:48:30;101238.34;;;22.25;68.69
72959;BME280;60008;50.826;6.896;2023-06-01T14:51:22;101234.22;;;22.41;66.57
72959;BME280;60008;50.826;6.896;2023-06-01T14:54:14;101227.69;;;22.30;65.56
72959;BME280;60008;50.826;6.896;2023-06-01T14:57:21;101226.06;;;22.59;66.66
72959;BME280;60008;50.826;6.896;2023-06-01T15:00:07;101226.19;;;22.52;65.80
72959;BME280;60008;50.826;6.896;2023-06-01T15:02:59;101232.66;;;22.33;66.73
72959;BME280;60008;50.826;6.896;2023-06-01T15:05:50;101222.59;;;22.22;67.16